sensor_id;sensor_type;location;lat;lon;timestamp;pressure;altitude;pressure_sealevel;temperature;humidity
50774;BME280;36745;48.544;8.918;2023-07-13T00:03:03;97350.34;;;18.86;75.02
50774;BME280;36745;48.544;8.918;2023-07-13T00:06:23;97353.88;;;18.81;74.70
50774;BME280;36745;48.544;8.918;2023-07-13T00:09:43;97357.66;;;18.78;74.64
50774;BME280;36745;48.544;8.918;2023-07-13T00:13:03;97362.97;;;18.76;74.69
50774;BME280;36745;48.544;8.918;2023-07-13T00:16:23;97360.66;;;18.75;74.48
50774;BME280;36745;48.544;8.918;2023-07-13T00:19:42;97363.94;;;18.73;74.32
50774;BME280;36745;48.544;8.918;2023-07-13T00:23:02;97356.28;;;18.68;74.62
50774;BME280;36745;48.544;8.918;2023-07-13T00:26:22;97345.84;;;18.43;75.30
50774;BME280;36745;48.544;8.918;2023-07-13T00:29:42;97347.63;;;18.40;75.78
50774;BME280;36745;48.544;8.918;2023-07-13T00:33:02;97345.03;;;18.37;75.88
50774;BME280;36745;48.544;8.918;2023-07-13T00:36:21;97344.50;;;18.33;76.13
50774;BME280;36745;48.544;8.918;2023-07-13T00:39:41;97343.59;;;18.21;76.58
50774;BME280;36745;48.544;8.918;2023-07-13T00:43:01;97353.38;;;18.11;77.11
50774;BME280;36745;48.544;8.918;2023-07-13T00:46:24;97347.88;;;18.17;77.35
50774;BME280;36745;48.544;8.918;2023-07-13T00:49:44;97347.59;;;18.15;77.96
50774;BME280;36745;48.544;8.918;2023-07-13T00:53:04;97354.28;;;18.23;77.19
50774;BME280;36745;48.544;8.918;2023-07-13T00:56:24;97353.75;;;18.19;76.79
50774;BME280;36745;48.544;8.918;2023-07-13T00:59:47;97347.03;;;18.11;76.74
50774;BME280;36745;48.544;8.918;2023-07-13T01:03:08;97342.16;;;18.06;76.71
50774;BME280;36745;48.544;8.918;2023-07-13T01:06:28;97349.00;;;18.04;77.58
50774;BME280;36745;48.544;8.918;2023-07-13T01:09:48;97351.53;;;18.02;76.58
50774;BME280;36745;48.544;8.918;2023-07-13T01:13:10;97360.16;;;18.04;76.67
50774;BME280;36745;48.544;8.918;2023-07-13T01:16:32;97355.88;;;18.09;76.70
50774;BME280;36745;48.544;8.918;2023-07-13T01:19:52;97349.53;;;18.09;76.85
50774;BME280;36745;48.544;8.918;2023-07-13T01:23:12;97361.56;;;17.94;77.17
50774;BME280;36745;48.544;8.918;2023-07-13T01:26:32;97362.25;;;17.89;77.52
50774;BME280;36745;48.544;8.918;2023-07-13T01:29:53;97355.28;;;17.79;78.02
50774;BME280;36745;48.544;8.918;2023-07-13T01:33:14;97361.25;;;17.72;78.13
50774;BME280;36745;48.544;8.918;2023-07-13T01:36:34;97359.56;;;17.60;78.36
50774;BME280;36745;48.544;8.918;2023-07-13T01:39:55;97372.66;;;17.54;78.07
50774;BME280;36745;48.544;8.918;2023-07-13T01:43:15;97359.13;;;17.47;78.36
50774;BME280;36745;48.544;8.918;2023-07-13T01:46:35;97358.44;;;17.52;78.03
50774;BME280;36745;48.544;8.918;2023-07-13T01:49:55;97356.13;;;17.50;77.67
50774;BME280;36745;48.544;8.918;2023-07-13T01:53:14;97355.13;;;17.33;77.57
50774;BME280;36745;48.544;8.918;2023-07-13T01:56:34;97366.19;;;17.28;77.89
50774;BME280;36745;48.544;8.918;2023-07-13T01:59:54;97366.19;;;17.28;77.99
50774;BME280;36745;48.544;8.918;2023-07-13T02:03:14;97360.03;;;17.24;78.88
50774;BME280;36745;48.544;8.918;2023-07-13T02:06:37;97361.72;;;17.15;78.73
50774;BME280;36745;48.544;8.918;2023-07-13T02:09:57;97360.97;;;17.00;78.68
50774;BME280;36745;48.544;8.918;2023-07-13T02:13:16;97360.09;;;16.94;78.65
50774;BME280;36745;48.544;8.918;2023-07-13T02:16:36;97367.03;;;16.84;78.55
50774;BME280;36745;48.544;8.918;2023-07-13T02:19:56;97369.91;;;16.75;78.49
50774;BME280;36745;48.544;8.918;2023-07-13T02:23:16;97367.00;;;16.69;78.60
50774;BME280;36745;48.544;8.918;2023-07-13T02:26:36;97370.47;;;16.64;78.49
50774;BME280;36745;48.544;8.918;2023-07-13T02:29:55;97372.78;;;16.66;79.21
50774;BME280;36745;48.544;8.918;2023-07-13T02:33:15;97383.88;;;16.51;79.95
50774;BME280;36745;48.544;8.918;2023-07-13T02:36:35;97382.59;;;16.37;80.60
50774;BME280;36745;48.544;8.918;2023-07-13T02:39:55;97392.84;;;16.31;81.38
50774;BME280;36745;48.544;8.918;2023-07-13T02:43:14;97395.38;;;16.29;81.42
50774;BME280;36745;48.544;8.918;2023-07-13T02:46:36;97383.81;;;16.22;81.16
50774;BME280;36745;48.544;8.918;2023-07-13T02:49:56;97393.69;;;16.08;81.57
50774;BME280;36745;48.544;8.918;2023-07-13T02:53:16;97393.16;;;15.95;82.60
50774;BME280;36745;48.544;8.918;2023-07-13T02:56:36;97386.81;;;15.94;82.52
50774;BME280;36745;48.544;8.918;2023-07-13T02:59:58;97390.44;;;15.86;82.55
50774;BME280;36745;48.544;8.918;2023-07-13T03:03:18;97384.34;;;15.73;83.02
50774;BME280;36745;48.544;8.918;2023-07-13T03:06:38;97378.91;;;15.55;83.51
50774;BME280;36745;48.544;8.918;2023-07-13T03:09:58;97386.94;;;15.52;83.73
50774;BME280;36745;48.544;8.918;2023-07-13T03:13:18;97387.56;;;15.47;84.59
50774;BME280;36745;48.544;8.918;2023-07-13T03:16:38;97391.56;;;15.46;84.72
50774;BME280;36745;48.544;8.918;2023-07-13T03:19:58;97397.13;;;15.46;84.77
50774;BME280;36745;48.544;8.918;2023-07-13T03:23:18;97399.91;;;15.46;84.90
50774;BME280;36745;48.544;8.918;2023-07-13T03:26:38;97395.88;;;15.47;84.93
50774;BME280;36745;48.544;8.918;2023-07-13T03:29:58;97399.97;;;15.37;85.82
50774;BME280;36745;48.544;8.918;2023-07-13T03:33:18;97397.47;;;15.39;86.02
50774;BME280;36745;48.544;8.918;2023-07-13T03:36:39;97397.13;;;15.46;86.07
50774;BME280;36745;48.544;8.918;2023-07-13T03:39:58;97397.72;;;15.50;85.82
50774;BME280;36745;48.544;8.918;2023-07-13T03:43:18;97400.84;;;15.52;86.03
50774;BME280;36745;48.544;8.918;2023-07-13T03:46:39;97412.72;;;15.53;85.70
50774;BME280;36745;48.544;8.918;2023-07-13T03:49:59;97412.25;;;15.45;85.93
50774;BME280;36745;48.544;8.918;2023-07-13T03:53:19;97413.34;;;15.48;85.91
50774;BME280;36745;48.544;8.918;2023-07-13T03:56:38;97422.78;;;15.41;86.92
50774;BME280;36745;48.544;8.918;2023-07-13T03:59:58;97422.00;;;15.41;87.29
50774;BME280;36745;48.544;8.918;2023-07-13T04:03:18;97428.63;;;15.52;87.26
50774;BME280;36745;48.544;8.918;2023-07-13T04:06:38;97427.97;;;15.58;86.80
50774;BME280;36745;48.544;8.918;2023-07-13T04:09:58;97433.22;;;15.56;86.94
50774;BME280;36745;48.544;8.918;2023-07-13T04:13:17;97433.22;;;15.56;87.21
50774;BME280;36745;48.544;8.918;2023-07-13T04:16:37;97431.34;;;15.62;86.96
50774;BME280;36745;48.544;8.918;2023-07-13T04:19:57;97428.09;;;15.63;87.13
50774;BME280;36745;48.544;8.918;2023-07-13T04:23:17;97430.88;;;15.63;87.29
50774;BME280;36745;48.544;8.918;2023-07-13T04:26:37;97436.00;;;15.56;87.62
50774;BME280;36745;48.544;8.918;2023-07-13T04:29:57;97438.44;;;15.63;87.63
50774;BME280;36745;48.544;8.918;2023-07-13T04:33:17;97434.75;;;15.57;88.21
50774;BME280;36745;48.544;8.918;2023-07-13T04:36:37;97428.09;;;15.63;88.39
50774;BME280;36745;48.544;8.918;2023-07-13T04:39:57;97433.31;;;15.70;88.44
50774;BME280;36745;48.544;8.918;2023-07-13T04:43:18;97429.72;;;15.79;88.26
50774;BME280;36745;48.544;8.918;2023-07-13T04:46:38;97433.97;;;15.89;88.09
50774;BME280;36745;48.544;8.918;2023-07-13T04:49:58;97440.88;;;15.93;87.71
50774;BME280;36745;48.544;8.918;2023-07-13T04:53:18;97447.22;;;15.94;87.54
50774;BME280;36745;48.544;8.918;2023-07-13T04:56:37;97459.53;;;16.02;87.56
50774;BME280;36745;48.544;8.918;2023-07-13T04:59:57;97463.03;;;16.12;87.69
50774;BME280;36745;48.544;8.918;2023-07-13T05:03:20;97462.28;;;16.26;87.24
50774;BME280;36745;48.544;8.918;2023-07-13T05:06:39;97455.91;;;16.34;87.01
50774;BME280;36745;48.544;8.918;2023-07-13T05:09:59;97462.34;;;16.41;86.88
50774;BME280;36745;48.544;8.918;2023-07-13T05:13:20;97462.94;;;16.45;87.14
50774;BME280;36745;48.544;8.918;2023-07-13T05:16:40;97457.00;;;16.52;87.13
50774;BME280;36745;48.544;8.918;2023-07-13T05:19:59;97458.63;;;16.58;86.84
50774;BME280;36745;48.544;8.918;2023-07-13T05:23:19;97458.78;;;16.64;86.88
50774;BME280;36745;48.544;8.918;2023-07-13T05:26:39;97467.06;;;16.73;86.99
50774;BME280;36745;48.544;8.918;2023-07-13T05:29:59;97467.63;;;16.77;86.52
50774;BME280;36745;48.544;8.918;2023-07-13T05:33:19;97474.34;;;16.85;86.42
50774;BME280;36745;48.544;8.918;2023-07-13T05:36:40;97481.75;;;16.88;86.18
50774;BME280;36745;48.544;8.918;2023-07-13T05:39:59;97481.09;;;16.93;85.96
50774;BME280;36745;48.544;8.918;2023-07-13T05:43:19;97487.44;;;17.08;86.16
50774;BME280;36745;48.544;8.918;2023-07-13T05:46:39;97494.19;;;17.16;85.97
50774;BME280;36745;48.544;8.918;2023-07-13T05:49:59;97494.19;;;17.16;85.51
50774;BME280;36745;48.544;8.918;2023-07-13T05:53:19;97493.09;;;17.29;85.80
50774;BME280;36745;48.544;8.918;2023-07-13T05:56:39;97498.84;;;17.54;85.92
50774;BME280;36745;48.544;8.918;2023-07-13T05:59:58;97509.69;;;17.82;85.64
50774;BME280;36745;48.544;8.918;2023-07-13T06:03:18;97504.72;;;18.06;84.56
50774;BME280;36745;48.544;8.918;2023-07-13T06:06:38;97510.94;;;18.16;84.31
50774;BME280;36745;48.544;8.918;2023-07-13T06:09:58;97511.88;;;18.27;84.04
50774;BME280;36745;48.544;8.918;2023-07-13T06:13:18;97510.13;;;18.30;83.46
50774;BME280;36745;48.544;8.918;2023-07-13T06:16:39;97511.16;;;18.53;83.45
50774;BME280;36745;48.544;8.918;2023-07-13T06:20:01;97519.22;;;18.65;82.70
50774;BME280;36745;48.544;8.918;2023-07-13T06:23:22;97522.78;;;18.86;82.97
50774;BME280;36745;48.544;8.918;2023-07-13T06:26:42;97516.88;;;19.30;82.77
50774;BME280;36745;48.544;8.918;2023-07-13T06:30:02;97517.75;;;19.42;81.29
50774;BME280;36745;48.544;8.918;2023-07-13T06:33:22;97524.47;;;19.87;80.73
50774;BME280;36745;48.544;8.918;2023-07-13T06:36:44;97525.22;;;20.19;79.65
50774;BME280;36745;48.544;8.918;2023-07-13T06:40:04;97526.69;;;20.14;77.15
50774;BME280;36745;48.544;8.918;2023-07-13T06:43:24;97517.88;;;20.27;77.24
50774;BME280;36745;48.544;8.918;2023-07-13T06:46:45;97522.03;;;20.37;76.22
50774;BME280;36745;48.544;8.918;2023-07-13T06:50:05;97524.41;;;20.49;75.20
50774;BME280;36745;48.544;8.918;2023-07-13T06:53:25;97523.44;;;20.64;74.03
50774;BME280;36745;48.544;8.918;2023-07-13T06:56:45;97526.28;;;20.75;72.91
50774;BME280;36745;48.544;8.918;2023-07-13T07:00:05;97533.50;;;21.04;73.19
50774;BME280;36745;48.544;8.918;2023-07-13T07:03:26;97530.22;;;21.05;72.16
50774;BME280;36745;48.544;8.918;2023-07-13T07:06:45;97536.84;;;21.13;71.92
50774;BME280;36745;48.544;8.918;2023-07-13T07:10:05;97530.25;;;21.27;69.36
50774;BME280;36745;48.544;8.918;2023-07-13T07:13:25;97526.72;;;21.44;68.96
50774;BME280;36745;48.544;8.918;2023-07-13T07:16:48;97528.28;;;21.61;68.55
50774;BME280;36745;48.544;8.918;2023-07-13T07:20:08;97534.91;;;21.69;67.79
50774;BME280;36745;48.544;8.918;2023-07-13T07:23:28;97536.97;;;21.80;66.57
50774;BME280;36745;48.544;8.918;2023-07-13T07:26:48;97530.81;;;21.87;64.38
50774;BME280;36745;48.544;8.918;2023-07-13T07:30:08;97524.69;;;22.16;66.21
50774;BME280;36745;48.544;8.918;2023-07-13T07:33:27;97522.88;;;22.19;62.75
50774;BME280;36745;48.544;8.918;2023-07-13T07:36:47;97532.09;;;22.14;61.59
50774;BME280;36745;48.544;8.918;2023-07-13T07:40:08;97530.53;;;22.30;61.90
50774;BME280;36745;48.544;8.918;2023-07-13T07:43:27;97526.19;;;22.40;58.38
50774;BME280;36745;48.544;8.918;2023-07-13T07:46:47;97523.59;;;22.42;59.13
50774;BME280;36745;48.544;8.918;2023-07-13T07:50:07;97521.22;;;22.68;59.44
50774;BME280;36745;48.544;8.918;2023-07-13T07:53:26;97526.59;;;22.77;57.33
50774;BME280;36745;48.544;8.918;2023-07-13T07:56:46;97526.59;;;22.77;57.00
50774;BME280;36745;48.544;8.918;2023-07-13T08:00:07;97534.72;;;22.81;56.47
50774;BME280;36745;48.544;8.918;2023-07-13T08:03:26;97527.28;;;22.89;53.87
50774;BME280;36745;48.544;8.918;2023-07-13T08:06:46;97525.75;;;22.93;54.69
50774;BME280;36745;48.544;8.918;2023-07-13T08:10:07;97528.53;;;22.99;52.55
50774;BME280;36745;48.544;8.918;2023-07-13T08:13:27;97527.16;;;23.11;52.72
50774;BME280;36745;48.544;8.918;2023-07-13T08:16:47;97527.78;;;23.34;53.61
50774;BME280;36745;48.544;8.918;2023-07-13T08:20:07;97527.13;;;23.63;53.54
50774;BME280;36745;48.544;8.918;2023-07-13T08:23:28;97526.94;;;23.86;52.72
50774;BME280;36745;48.544;8.918;2023-07-13T08:26:48;97533.03;;;23.90;52.06
50774;BME280;36745;48.544;8.918;2023-07-13T08:30:08;97520.66;;;23.98;50.83
50774;BME280;36745;48.544;8.918;2023-07-13T08:33:28;97528.25;;;24.09;50.58
50774;BME280;36745;48.544;8.918;2023-07-13T08:36:48;97521.78;;;23.90;48.98
50774;BME280;36745;48.544;8.918;2023-07-13T08:40:10;97513.72;;;23.75;45.98
50774;BME280;36745;48.544;8.918;2023-07-13T08:43:35;97522.09;;;23.45;47.64
50774;BME280;36745;48.544;8.918;2023-07-13T08:46:56;97523.41;;;23.79;45.49
50774;BME280;36745;48.544;8.918;2023-07-13T08:50:19;97523.94;;;24.02;45.47
50774;BME280;36745;48.544;8.918;2023-07-13T08:53:44;97514.25;;;23.98;45.49
50774;BME280;36745;48.544;8.918;2023-07-13T08:57:28;97521.09;;;23.78;46.50
50774;BME280;36745;48.544;8.918;2023-07-13T09:04:23;97513.44;;;24.33;44.40
50774;BME280;36745;48.544;8.918;2023-07-13T09:14:53;97532.47;;;23.97;44.18
50774;BME280;36745;48.544;8.918;2023-07-13T09:18:21;97530.16;;;23.95;42.54
50774;BME280;36745;48.544;8.918;2023-07-13T09:21:44;97524.81;;;24.21;43.55
50774;BME280;36745;48.544;8.918;2023-07-13T09:25:21;97523.94;;;24.32;43.26
50774;BME280;36745;48.544;8.918;2023-07-13T09:28:45;97534.53;;;24.50;42.18
50774;BME280;36745;48.544;8.918;2023-07-13T09:32:07;97518.97;;;24.62;41.93
50774;BME280;36745;48.544;8.918;2023-07-13T09:35:30;97524.72;;;24.76;42.70
50774;BME280;36745;48.544;8.918;2023-07-13T09:39:08;97522.56;;;25.06;40.90
50774;BME280;36745;48.544;8.918;2023-07-13T09:42:32;97522.69;;;25.32;42.48
50774;BME280;36745;48.544;8.918;2023-07-13T09:45:53;97519.81;;;25.57;41.58
50774;BME280;36745;48.544;8.918;2023-07-13T09:49:13;97520.28;;;25.42;39.33
50774;BME280;36745;48.544;8.918;2023-07-13T09:52:44;97519.38;;;25.15;40.20
50774;BME280;36745;48.544;8.918;2023-07-13T09:56:19;97516.06;;;25.11;41.19
50774;BME280;36745;48.544;8.918;2023-07-13T09:59:44;97518.91;;;25.30;40.84
50774;BME280;36745;48.544;8.918;2023-07-13T10:03:18;97513.09;;;25.22;39.14
50774;BME280;36745;48.544;8.918;2023-07-13T10:06:38;97513.41;;;25.00;39.75
50774;BME280;36745;48.544;8.918;2023-07-13T10:10:01;97521.31;;;24.83;39.12
50774;BME280;36745;48.544;8.918;2023-07-13T10:13:29;97516.50;;;24.78;39.92
50774;BME280;36745;48.544;8.918;2023-07-13T10:16:55;97508.69;;;24.89;40.40
50774;BME280;36745;48.544;8.918;2023-07-13T10:20:16;97502.44;;;25.15;39.38
50774;BME280;36745;48.544;8.918;2023-07-13T10:23:36;97509.84;;;25.18;39.46
50774;BME280;36745;48.544;8.918;2023-07-13T10:27:00;97515.22;;;25.16;38.58
50774;BME280;36745;48.544;8.918;2023-07-13T10:30:28;97509.44;;;25.27;38.83
50774;BME280;36745;48.544;8.918;2023-07-13T10:33:49;97504.19;;;25.18;39.42
50774;BME280;36745;48.544;8.918;2023-07-13T10:37:15;97500.78;;;24.88;38.53
50774;BME280;36745;48.544;8.918;2023-07-13T10:40:40;97491.16;;;24.96;39.92
50774;BME280;36745;48.544;8.918;2023-07-13T10:44:04;97502.09;;;25.88;40.39
50774;BME280;36745;48.544;8.918;2023-07-13T10:47:24;97497.78;;;26.13;38.64
50774;BME280;36745;48.544;8.918;2023-07-13T10:50:46;97506.44;;;25.89;37.86
50774;BME280;36745;48.544;8.918;2023-07-13T10:57:42;97495.66;;;26.46;37.79
50774;BME280;36745;48.544;8.918;2023-07-13T11:04:41;97486.53;;;26.66;35.94
50774;BME280;36745;48.544;8.918;2023-07-13T11:08:19;97488.47;;;26.58;36.64
50774;BME280;36745;48.544;8.918;2023-07-13T11:11:40;97482.38;;;26.67;36.22
50774;BME280;36745;48.544;8.918;2023-07-13T11:18:24;97471.63;;;26.52;34.95
50774;BME280;36745;48.544;8.918;2023-07-13T11:22:10;97481.53;;;26.33;35.22
50774;BME280;36745;48.544;8.918;2023-07-13T11:25:34;97479.41;;;26.20;35.20
50774;BME280;36745;48.544;8.918;2023-07-13T11:28:56;97476.31;;;26.23;34.44
50774;BME280;36745;48.544;8.918;2023-07-13T11:32:23;97474.63;;;26.15;34.56
50774;BME280;36745;48.544;8.918;2023-07-13T11:35:51;97474.47;;;26.39;34.44
50774;BME280;36745;48.544;8.918;2023-07-13T11:39:24;97470.97;;;26.59;34.44
50774;BME280;36745;48.544;8.918;2023-07-13T11:42:44;97458.78;;;26.51;33.96
50774;BME280;36745;48.544;8.918;2023-07-13T11:46:24;97465.53;;;26.48;34.57
50774;BME280;36745;48.544;8.918;2023-07-13T11:49:53;97455.72;;;26.76;33.88
50774;BME280;36745;48.544;8.918;2023-07-13T11:53:15;97467.81;;;26.37;32.84
50774;BME280;36745;48.544;8.918;2023-07-13T11:56:36;97463.44;;;26.09;33.24
50774;BME280;36745;48.544;8.918;2023-07-13T11:59:58;97464.34;;;26.17;32.51
50774;BME280;36745;48.544;8.918;2023-07-13T12:03:21;97465.81;;;26.18;33.91
50774;BME280;36745;48.544;8.918;2023-07-13T12:06:43;97466.00;;;26.39;33.27
50774;BME280;36745;48.544;8.918;2023-07-13T12:10:26;97466.09;;;26.34;33.13
50774;BME280;36745;48.544;8.918;2023-07-13T12:13:49;97471.09;;;26.41;32.94
50774;BME280;36745;48.544;8.918;2023-07-13T12:17:16;97467.34;;;25.93;32.48
50774;BME280;36745;48.544;8.918;2023-07-13T12:20:38;97463.53;;;25.90;33.14
50774;BME280;36745;48.544;8.918;2023-07-13T12:23:59;97462.94;;;26.24;33.71
50774;BME280;36745;48.544;8.918;2023-07-13T12:27:23;97459.56;;;26.52;32.87
50774;BME280;36745;48.544;8.918;2023-07-13T12:30:48;97455.78;;;26.83;32.70
50774;BME280;36745;48.544;8.918;2023-07-13T12:37:28;97453.69;;;26.50;32.00
50774;BME280;36745;48.544;8.918;2023-07-13T12:40:50;97463.69;;;26.51;32.94
50774;BME280;36745;48.544;8.918;2023-07-13T12:44:13;97453.84;;;26.78;32.79
50774;BME280;36745;48.544;8.918;2023-07-13T12:47:40;97459.97;;;26.69;32.53
50774;BME280;36745;48.544;8.918;2023-07-13T12:51:02;97466.09;;;26.60;32.64
50774;BME280;36745;48.544;8.918;2023-07-13T12:54:21;97471.97;;;26.49;32.30
50774;BME280;36745;48.544;8.918;2023-07-13T12:57:55;97471.50;;;26.71;32.92
50774;BME280;36745;48.544;8.918;2023-07-13T13:01:16;97468.19;;;27.06;32.90
50774;BME280;36745;48.544;8.918;2023-07-13T13:04:39;97458.53;;;27.23;31.82
50774;BME280;36745;48.544;8.918;2023-07-13T13:08:00;97450.69;;;27.29;32.23
50774;BME280;36745;48.544;8.918;2023-07-13T13:11:21;97450.59;;;27.21;32.27
50774;BME280;36745;48.544;8.918;2023-07-13T13:14:42;97454.81;;;27.28;32.28
50774;BME280;36745;48.544;8.918;2023-07-13T13:18:01;97457.47;;;27.26;31.43
50774;BME280;36745;48.544;8.918;2023-07-13T13:21:22;97450.53;;;27.13;31.42
50774;BME280;36745;48.544;8.918;2023-07-13T13:24:43;97451.53;;;27.03;31.18
50774;BME280;36745;48.544;8.918;2023-07-13T13:28:02;97456.03;;;26.98;30.79
50774;BME280;36745;48.544;8.918;2023-07-13T13:31:22;97450.94;;;27.18;31.27
50774;BME280;36745;48.544;8.918;2023-07-13T13:34:43;97450.13;;;27.09;31.01
50774;BME280;36745;48.544;8.918;2023-07-13T13:38:12;97451.00;;;27.04;29.79
50774;BME280;36745;48.544;8.918;2023-07-13T13:41:33;97449.50;;;26.90;30.68
50774;BME280;36745;48.544;8.918;2023-07-13T13:44:53;97450.31;;;26.51;30.46
50774;BME280;36745;48.544;8.918;2023-07-13T13:48:33;97444.13;;;26.26;30.43
50774;BME280;36745;48.544;8.918;2023-07-13T13:51:53;97444.53;;;26.57;30.47
50774;BME280;36745;48.544;8.918;2023-07-13T13:55:19;97434.94;;;26.73;30.56
50774;BME280;36745;48.544;8.918;2023-07-13T13:58:39;97439.50;;;26.89;30.32
50774;BME280;36745;48.544;8.918;2023-07-13T14:01:59;97440.81;;;26.88;30.48
50774;BME280;36745;48.544;8.918;2023-07-13T14:05:24;97444.53;;;27.17;30.68
50774;BME280;36745;48.544;8.918;2023-07-13T14:08:46;97447.47;;;27.11;30.46
50774;BME280;36745;48.544;8.918;2023-07-13T14:12:09;97439.53;;;27.10;30.32
50774;BME280;36745;48.544;8.918;2023-07-13T14:15:31;97436.38;;;27.13;30.15
50774;BME280;36745;48.544;8.918;2023-07-13T14:18:51;97440.66;;;27.07;30.35
50774;BME280;36745;48.544;8.918;2023-07-13T14:22:11;97457.44;;;26.79;30.58
50774;BME280;36745;48.544;8.918;2023-07-13T14:25:30;97455.72;;;26.76;30.44
50774;BME280;36745;48.544;8.918;2023-07-13T14:28:53;97446.34;;;26.81;30.21
50774;BME280;36745;48.544;8.918;2023-07-13T14:32:13;97448.00;;;26.76;30.68
50774;BME280;36745;48.544;8.918;2023-07-13T14:35:33;97441.78;;;26.78;30.34
50774;BME280;36745;48.544;8.918;2023-07-13T14:38:53;97444.53;;;26.70;30.75
50774;BME280;36745;48.544;8.918;2023-07-13T14:42:13;97443.88;;;26.77;30.82
50774;BME280;36745;48.544;8.918;2023-07-13T14:45:32;97446.00;;;26.84;30.21
50774;BME280;36745;48.544;8.918;2023-07-13T14:49:02;97452.09;;;27.01;30.83
50774;BME280;36745;48.544;8.918;2023-07-13T14:52:23;97464.75;;;26.87;30.90
50774;BME280;36745;48.544;8.918;2023-07-13T14:55:43;97455.56;;;27.07;31.57
50774;BME280;36745;48.544;8.918;2023-07-13T14:59:03;97456.97;;;27.14;31.43
50774;BME280;36745;48.544;8.918;2023-07-13T15:02:30;97455.56;;;27.07;31.31
50774;BME280;36745;48.544;8.918;2023-07-13T15:05:51;97467.34;;;26.98;32.07
50774;BME280;36745;48.544;8.918;2023-07-13T15:09:12;97459.28;;;26.89;32.28
50774;BME280;36745;48.544;8.918;2023-07-13T15:12:32;97468.56;;;26.77;32.27
50774;BME280;36745;48.544;8.918;2023-07-13T15:15:53;97467.38;;;26.59;32.33
50774;BME280;36745;48.544;8.918;2023-07-13T15:19:13;97467.59;;;26.61;32.64
50774;BME280;36745;48.544;8.918;2023-07-13T15:22:33;97471.75;;;26.60;32.72
50774;BME280;36745;48.544;8.918;2023-07-13T15:25:53;97459.13;;;26.48;32.66
50774;BME280;36745;48.544;8.918;2023-07-13T15:29:13;97457.63;;;26.34;32.82
50774;BME280;36745;48.544;8.918;2023-07-13T15:32:33;97458.91;;;26.33;32.87
50774;BME280;36745;48.544;8.918;2023-07-13T15:35:53;97465.88;;;26.45;33.12
50774;BME280;36745;48.544;8.918;2023-07-13T15:39:15;97462.81;;;26.43;32.77
50774;BME280;36745;48.544;8.918;2023-07-13T15:42:35;97464.34;;;26.44;33.17
50774;BME280;36745;48.544;8.918;2023-07-13T15:46:00;97454.88;;;26.41;32.88
50774;BME280;36745;48.544;8.918;2023-07-13T15:49:20;97455.34;;;26.32;33.23
50774;BME280;36745;48.544;8.918;2023-07-13T15:52:41;97462.81;;;26.43;32.97
50774;BME280;36745;48.544;8.918;2023-07-13T15:56:02;97466.41;;;26.56;33.03
50774;BME280;36745;48.544;8.918;2023-07-13T15:59:31;97462.41;;;26.39;32.66
50774;BME280;36745;48.544;8.918;2023-07-13T16:02:51;97454.53;;;26.18;32.59
50774;BME280;36745;48.544;8.918;2023-07-13T16:06:14;97459.09;;;26.21;32.72
50774;BME280;36745;48.544;8.918;2023-07-13T16:09:34;97464.53;;;26.06;32.86
50774;BME280;36745;48.544;8.918;2023-07-13T16:12:54;97463.66;;;25.98;33.30
50774;BME280;36745;48.544;8.918;2023-07-13T16:16:14;97458.22;;;26.00;33.03
50774;BME280;36745;48.544;8.918;2023-07-13T16:19:34;97456.38;;;26.03;33.19
50774;BME280;36745;48.544;8.918;2023-07-13T16:22:54;97463.94;;;25.81;33.02
50774;BME280;36745;48.544;8.918;2023-07-13T16:26:26;97465.47;;;25.82;33.12
50774;BME280;36745;48.544;8.918;2023-07-13T16:29:46;97468.84;;;25.94;33.30
50774;BME280;36745;48.544;8.918;2023-07-13T16:33:06;97479.09;;;26.10;33.24
50774;BME280;36745;48.544;8.918;2023-07-13T16:36:28;97475.84;;;26.06;33.10
50774;BME280;36745;48.544;8.918;2023-07-13T16:39:55;97472.13;;;25.98;32.95
50774;BME280;36745;48.544;8.918;2023-07-13T16:43:18;97472.97;;;25.93;32.95
50774;BME280;36745;48.544;8.918;2023-07-13T16:46:41;97490.25;;;25.89;33.33
50774;BME280;36745;48.544;8.918;2023-07-13T16:50:01;97492.75;;;25.93;33.49
50774;BME280;36745;48.544;8.918;2023-07-13T16:53:28;97496.44;;;25.88;33.02
50774;BME280;36745;48.544;8.918;2023-07-13T16:56:48;97494.25;;;25.81;33.00
50774;BME280;36745;48.544;8.918;2023-07-13T17:00:18;97496.44;;;25.75;33.44
50774;BME280;36745;48.544;8.918;2023-07-13T17:03:39;97490.50;;;25.60;33.07
50774;BME280;36745;48.544;8.918;2023-07-13T17:06:58;97491.56;;;25.57;33.22
50774;BME280;36745;48.544;8.918;2023-07-13T17:10:21;97494.84;;;25.61;33.49
50774;BME280;36745;48.544;8.918;2023-07-13T17:13:42;97492.06;;;25.55;33.47
50774;BME280;36745;48.544;8.918;2023-07-13T17:17:02;97485.16;;;25.37;33.47
50774;BME280;36745;48.544;8.918;2023-07-13T17:20:25;97482.47;;;25.13;33.60
50774;BME280;36745;48.544;8.918;2023-07-13T17:23:46;97481.78;;;25.07;33.70
50774;BME280;36745;48.544;8.918;2023-07-13T17:27:07;97484.16;;;25.03;33.80
50774;BME280;36745;48.544;8.918;2023-07-13T17:30:27;97484.81;;;24.90;33.87
50774;BME280;36745;48.544;8.918;2023-07-13T17:33:47;97483.22;;;24.95;34.32
50774;BME280;36745;48.544;8.918;2023-07-13T17:37:10;97483.22;;;24.95;34.31
50774;BME280;36745;48.544;8.918;2023-07-13T17:40:30;97485.00;;;24.98;34.46
50774;BME280;36745;48.544;8.918;2023-07-13T17:43:51;97494.50;;;24.95;34.50
50774;BME280;36745;48.544;8.918;2023-07-13T17:47:23;97495.59;;;24.92;34.73
50774;BME280;36745;48.544;8.918;2023-07-13T17:50:43;97498.75;;;24.83;34.55
50774;BME280;36745;48.544;8.918;2023-07-13T17:54:13;97491.34;;;24.61;34.68
50774;BME280;36745;48.544;8.918;2023-07-13T17:57:33;97501.28;;;24.43;35.13
50774;BME280;36745;48.544;8.918;2023-07-13T18:00:53;97497.63;;;24.48;35.17
50774;BME280;36745;48.544;8.918;2023-07-13T18:04:16;97491.53;;;24.44;35.56
50774;BME280;36745;48.544;8.918;2023-07-13T18:07:36;97500.00;;;24.44;35.62
50774;BME280;36745;48.544;8.918;2023-07-13T18:10:57;97505.38;;;24.42;35.94
50774;BME280;36745;48.544;8.918;2023-07-13T18:14:18;97514.66;;;24.37;35.77